Flight Track Log - Related Links

Times and Time Zones

All times are in EDT time to prevent confusion due to time zone crossing. See the TRS587 flight status page for this flight to view local times or setup timezone preferences in your user account.

Time Position Orientation Groundspeed Altitude Reporting Facility
EDT Latitude Longitude Course Direction KTS MPH feet Rate Location/Type
Thu 11:48:52 AM 28.4000 -81.3000 221° Southwest 159 183 1,200  Level Orlando TRACON
Thu 11:50:05 AM 28.3500 -81.3500 221° Southwest 234 269 3,200 1,714 Climbing Orlando TRACON
Thu 11:51:05 AM 28.3333 -81.4167 254° West 277 319 5,000 2,158 Climbing Orlando TRACON
Thu 11:51:59 AM 28.3333 -81.5000 270° West 289 333 7,300 2,421 Climbing Orlando TRACON
Thu 11:52:59 AM 28.3500 -81.6000 281° West 297 342 9,600 1,568 Climbing Orlando TRACON
Thu 11:54:55 AM 28.3997 -81.7692 289° West 319 367 11,900 1,330 Climbing Jacksonville Center
Thu 11:55:55 AM 28.4256 -81.8822 285° West 348 400 13,500 1,700 Climbing Jacksonville Center
Thu 11:56:55 AM 28.4536 -82.0000 285° West 372 428 15,300 1,800 Climbing Jacksonville Center
Thu 11:57:55 AM 28.4814 -82.1181 285° West 383 441 17,100 1,600 Climbing Jacksonville Center
Thu 11:58:55 AM 28.5114 -82.2406 286° West 395 455 18,500 1,450 Climbing Jacksonville Center
Thu 11:59:55 AM 28.5642 -82.3561 297° West 395 455 20,000 1,450 Climbing Jacksonville Center
Thu 12:00:55 PM 28.6231 -82.4717 300° West 408 470 21,400 1,500 Climbing Jacksonville Center
Thu 12:01:55 PM 28.7150 -82.5542 322° Northwest 423 487 23,000 1,500 Climbing Jacksonville Center
Thu 12:02:55 PM 28.8236 -82.6131 335° Northwest 423 487 24,400 1,250 Climbing Jacksonville Center
Thu 12:03:55 PM 28.9367 -82.6792 333° Northwest 433 498 25,500 1,250 Climbing Jacksonville Center
Thu 12:04:55 PM 29.0494 -82.7406 335° Northwest 439 505 26,900 1,150 Climbing Jacksonville Center
Thu 12:05:55 PM 29.1642 -82.8044 334° Northwest 450 518 27,800 1,050 Climbing Jacksonville Center
Thu 12:06:55 PM 29.2792 -82.8689 334° Northwest 450 518 29,000 1,350 Climbing Jacksonville Center
Thu 12:07:55 PM 29.3958 -82.9356 334° Northwest 450 518 30,500 1,500 Climbing Jacksonville Center
Thu 12:08:55 PM 29.5233 -83.0094 333° Northwest 450 518 32,000 1,350 Climbing Jacksonville Center
Thu 12:09:55 PM 29.6381 -83.0694 336° Northwest 451 519 33,200 2,000 Climbing Jacksonville Center
Thu 12:10:55 PM 29.7547 -83.1294 336° Northwest 456 525 36,000 1,150 Climbing Jacksonville Center
Thu 12:11:55 PM 29.8675 -83.1753 341° North 450 518 35,500  Descending Jacksonville Center
Thu 12:12:55 PM 29.9800 -83.2283 338° Northwest 444 511 36,000 250 Climbing Jacksonville Center
Thu 12:13:55 PM 30.0947 -83.2792 339° North 439 505 36,000  Level Jacksonville Center
Thu 12:14:55 PM 30.2072 -83.3325 338° Northwest 433 498 36,000  Level Jacksonville Center
Thu 12:15:55 PM 30.3197 -83.3858 338° Northwest 433 498 36,000  Level Jacksonville Center
Thu 12:16:55 PM 30.4325 -83.4369 339° North 433 498 36,000  Level Jacksonville Center
Thu 12:17:55 PM 30.5450 -83.4883 339° North 433 498 36,000  Level Jacksonville Center
Thu 12:18:55 PM 30.6553 -83.5422 337° Northwest 433 498 36,000  Level Jacksonville Center
Thu 12:19:55 PM 30.7531 -83.5889 338° Northwest 433 498 36,000  Level Jacksonville Center
Thu 12:20:55 PM 30.8636 -83.6428 337° Northwest 433 498 36,000  Level Jacksonville Center
Thu 12:21:55 PM 30.9800 -83.6994 337° Northwest 433 498 36,000  Level Jacksonville Center
Thu 12:24:09 PM 31.2331 -83.8228 337° Northwest 446 513 36,000  Level Atlanta Center
Thu 12:25:09 PM 31.3458 -83.8783 337° Northwest 441 507 36,000  Level Atlanta Center
Thu 12:27:09 PM 31.5756 -83.9756 340° North 441 507 36,000  Level Atlanta Center
Thu 12:28:09 PM 31.6922 -84.0022 349° North 435 501 36,000  Level Atlanta Center
Thu 12:29:09 PM 31.8217 -84.0292 350° North 430 495 36,000  Level Atlanta Center
Thu 12:30:09 PM 31.9428 -84.0536 350° North 430 495 36,000  Level Atlanta Center
Thu 12:31:09 PM 32.0597 -84.0806 349° North 430 495 36,000  Level Atlanta Center
Thu 12:32:09 PM 32.1786 -84.1050 350° North 430 495 36,000  Level Atlanta Center
Thu 12:33:09 PM 32.2956 -84.1322 349° North 430 495 36,000  Level Atlanta Center
Thu 12:34:09 PM 32.4103 -84.1594 349° North 430 495 36,000  Level Atlanta Center
Thu 12:35:09 PM 32.5292 -84.1867 349° North 430 495 36,000  Level Atlanta Center
Thu 12:36:09 PM 32.6439 -84.2117 350° North 430 495 36,000 50 Level Atlanta Center
Thu 12:37:08 PM 32.7608 -84.2364 350° North 430 495 36,100  Climbing Atlanta Center
Thu 12:38:09 PM 32.8714 -84.2639 348° North 425 489 36,000 -50 Descending Atlanta Center
Thu 12:39:09 PM 32.9883 -84.2914 349° North 425 489 36,000  Level Atlanta Center
Thu 12:40:08 PM 33.1008 -84.3167 349° North 420 483 36,000  Level Atlanta Center
Thu 12:41:09 PM 33.2136 -84.3417 349° North 411 473 36,000  Level Atlanta Center
Thu 12:42:09 PM 33.3306 -84.3694 349° North 416 479 36,000  Level Atlanta Center
Thu 12:43:08 PM 33.4328 -84.3947 348° North 411 473 36,000  Level Atlanta Center
Thu 12:44:09 PM 33.5494 -84.4178 351° North 416 479 36,000  Level Atlanta Center
Thu 12:45:08 PM 33.6619 -84.4456 348° North 416 479 36,000  Level Atlanta Center
Thu 12:46:08 PM 33.7789 -84.4761 348° North 416 479 36,000  Level Atlanta Center
Thu 12:47:09 PM 33.8978 -84.5017 350° North 416 479 36,000  Level Atlanta Center
Thu 12:48:08 PM 34.0144 -84.5325 348° North 421 484 36,000  Level Atlanta Center
Thu 12:49:09 PM 34.1458 -84.5608 350° North 434 499 36,000  Level Atlanta Center
Thu 12:50:08 PM 34.2606 -84.5892 348° North 428 493 36,000  Level Atlanta Center
Thu 12:51:08 PM 34.3628 -84.6150 348° North 416 479 36,000  Level Atlanta Center
Thu 12:52:08 PM 34.4753 -84.6411 349° North 416 479 36,000  Level Atlanta Center
Thu 12:53:08 PM 34.5900 -84.6669 349° North 410 472 36,000  Level Atlanta Center
Thu 12:54:08 PM 34.6983 -84.6981 347° North 405 466 36,000  Level Atlanta Center
Thu 12:55:09 PM 34.8108 -84.7269 348° North 405 466 36,000  Level Atlanta Center
Thu 12:56:09 PM 34.9256 -84.7558 348° North 410 472 36,000  Level Atlanta Center
Thu 12:57:09 PM 35.0400 -84.7819 349° North 415 478 36,000  Level Atlanta Center
Thu 12:58:08 PM 35.1506 -84.8111 348° North 410 472 36,000  Level Atlanta Center
Thu 12:59:09 PM 35.2650 -84.8400 348° North 410 472 36,000  Level Atlanta Center
Thu 01:00:08 PM 35.3900 -84.8719 348° North 410 472 36,000  Level Atlanta Center
Thu 01:01:08 PM 35.5025 -84.9011 348° North 410 472 36,000  Level Atlanta Center
Thu 01:02:09 PM 35.6150 -84.9303 348° North 410 472 36,000  Level Atlanta Center
Thu 01:03:09 PM 35.7272 -84.9597 348° North 410 472 36,000  Level Atlanta Center
Thu 01:05:10 PM 35.9542 -85.0125 349° North 426 490 36,000  Level Indianapolis Center
Thu 01:06:12 PM 36.0819 -85.0453 348° North 422 486 36,000  Level Indianapolis Center
Thu 01:07:14 PM 36.1978 -85.0744 349° North 421 484 36,000  Level Indianapolis Center
Thu 01:08:16 PM 36.3131 -85.1042 348° North 423 487 36,000  Level Indianapolis Center
Thu 01:09:18 PM 36.4261 -85.1339 348° North 417 480 36,000  Level Indianapolis Center
Thu 01:10:20 PM 36.5403 -85.1625 349° North 417 480 36,000  Level Indianapolis Center
Thu 01:11:22 PM 36.6789 -85.1989 348° North 423 487 36,000  Level Indianapolis Center
Thu 01:12:24 PM 36.7919 -85.2281 348° North 416 479 36,000  Level Indianapolis Center
Thu 01:13:26 PM 36.9050 -85.2575 348° North 415 478 36,000  Level Indianapolis Center
Thu 01:14:28 PM 37.0197 -85.2883 348° North 420 483 36,000  Level Indianapolis Center
Thu 01:15:30 PM 37.1297 -85.3156 349° North 418 481 36,000  Level Indianapolis Center
Thu 01:16:32 PM 37.2631 -85.3519 348° North 420 483 36,000  Level Indianapolis Center
Thu 01:17:34 PM 37.3789 -85.3819 348° North 423 487 36,000  Level Indianapolis Center
Thu 01:18:35 PM 37.4950 -85.4133 348° North 424 488 36,000  Level Indianapolis Center
Thu 01:19:37 PM 37.6103 -85.4456 348° North 424 488 36,000  Level Indianapolis Center
Thu 01:20:39 PM 37.7264 -85.4692 351° North 421 484 36,000  Level Indianapolis Center
Thu 01:21:41 PM 37.8544 -85.4933 352° North 427 491 36,000  Level Indianapolis Center
Thu 01:22:43 PM 37.9733 -85.5158 352° North 431 496 36,000  Level Indianapolis Center
Thu 01:23:45 PM 38.0861 -85.5408 350° North 420 483 36,000 -195 Level Indianapolis Center
Thu 01:24:46 PM 38.2033 -85.5642 351° North 421 484 35,600 -488 Descending Indianapolis Center
Thu 01:25:48 PM 38.3192 -85.5886 351° North 422 486 35,000 -290 Descending Indianapolis Center
Thu 01:26:50 PM 38.4367 -85.6114 351° North 425 489 35,000  Level Indianapolis Center
Thu 01:27:52 PM 38.5753 -85.6403 351° North 420 483 35,000  Level Indianapolis Center
Thu 01:28:54 PM 38.6856 -85.6633 351° North 420 483 35,000  Level Indianapolis Center
Thu 01:29:55 PM 38.8014 -85.6878 351° North 422 486 35,000  Level Indianapolis Center
Thu 01:30:57 PM 38.9167 -85.7111 351° North 421 484 35,000  Level Indianapolis Center
Thu 01:31:59 PM 39.0322 -85.7364 350° North 423 487 35,000 -732 Level Indianapolis Center
Thu 01:33:00 PM 39.1678 -85.7647 351° North 413 475 33,500 -2,244 Descending Indianapolis Center
Thu 01:34:02 PM 39.2808 -85.7878 351° North 412 474 30,400 -2,081 Descending Indianapolis Center
Thu 01:35:04 PM 39.3994 -85.8122 351° North 429 494 29,200 -677 Descending Indianapolis Center
Thu 01:36:06 PM 39.5161 -85.8372 351° North 429 494 29,000 -97 Descending Indianapolis Center
Thu 01:37:08 PM 39.6322 -85.8622 351° North 427 491 29,000  Level Indianapolis Center
Thu 01:38:10 PM 39.7689 -85.8919 351° North 423 487 29,000 -774 Level Indianapolis Center
Thu 01:39:12 PM 39.8839 -85.9169 351° North 424 488 27,400 -2,000 Descending Indianapolis Center
Thu 01:40:13 PM 39.9958 -85.9411 351° North 417 480 24,900 -1,659 Descending Indianapolis Center
Thu 01:41:15 PM 40.1000 -85.9811 344° North 401 461 24,000 -600 Descending Indianapolis Center
Thu 01:42:03 PM 40.1808 -86.0172 341° North 392 451 23,800 -655 Descending Chicago Center
Thu 01:43:05 PM 40.2825 -86.0658 340° North 392 451 22,800 -1,056 Descending Chicago Center
Thu 01:44:08 PM 40.4003 -86.1211 340° North 378 435 21,600 -1,056 Descending Chicago Center
Thu 01:45:10 PM 40.4983 -86.1681 340° North 378 435 20,600 -871 Descending Chicago Center
Thu 01:46:12 PM 40.6014 -86.2161 341° North 393 452 19,800 -726 Descending Chicago Center
Thu 01:47:14 PM 40.6994 -86.2636 340° North 401 461 19,100 -823 Descending Chicago Center
Thu 01:48:16 PM 40.8106 -86.3561 328° Northwest 392 451 18,100 -726 Descending Chicago Center
Thu 01:49:18 PM 40.9033 -86.4339 328° Northwest 392 451 17,600 -871 Descending Chicago Center
Thu 01:50:20 PM 40.9942 -86.5092 328° Northwest 386 444 16,300 -2,634 Descending Chicago Center
Thu 01:51:21 PM 41.0839 -86.5803 329° Northwest 375 432 12,200 -2,829 Descending Chicago Center
Thu 01:52:23 PM 41.1594 -86.6619 321° Northwest 357 411 10,500 -1,065 Descending Chicago Center
Thu 01:53:25 PM 41.2353 -86.7675 314° West 355 409 10,000 -242 Descending Chicago Center
Thu 01:54:27 PM 41.3025 -86.8614 314° West 353 406 10,000  Level Chicago Center
Thu 01:55:29 PM 41.3714 -86.9567 314° West 358 412 10,000 -97 Level Chicago Center
Thu 01:56:31 PM 41.4239 -87.0400 310° West 307 353 9,800 -1,645 Descending Chicago Center
Thu 01:57:33 PM 41.4817 -87.1339 309° West 272 313 6,600 -2,226 Descending Chicago Center
Thu 01:58:35 PM 41.4886 -87.2322 275° West 268 308 5,200 -774 Descending Chicago Center
Thu 01:59:37 PM 41.4944 -87.3286 275° West 263 303 5,000 -435 Descending Chicago Center
Thu 02:00:39 PM 41.5014 -87.4253 276° West 265 305 4,300 -484 Descending Chicago Center
Thu 02:01:41 PM 41.5086 -87.5225 276° West 264 304 4,000 -145 Descending Chicago Center
Thu 02:02:43 PM 41.5500 -87.6217 299° West 264 304 4,000 -242 Level Chicago Center
Thu 02:03:45 PM 41.5919 -87.7006 305° West 265 305 3,500 -484 Descending Chicago Center
Thu 02:04:47 PM 41.6339 -87.7786 306° West 263 303 3,000 -341 Descending Chicago Center
Thu 02:05:48 PM 41.6794 -87.8303 320° Northwest 238 274 2,800 -293 Descending Chicago Center
Thu 02:06:50 PM 41.7172 -87.8381 351° North 188 216 2,400 -629 Descending Chicago Center
Thu 02:07:52 PM 41.7483 -87.7983 44° Northeast 145 167 1,500 -677 Descending Chicago Center
Thu 02:08:54 PM 41.7758 -87.7653 42° Northeast 134 154 1,000 -484 Descending Chicago Center
Thu 02:10:00 PM 41.7833 -87.7500 14° North  Level FlightAware Approximate

Login

Don't have an account? Register now (free) for customized features, flight alerts, and more!